createdAt,value
2022-12-14T00:00:54.622Z,41.38
2022-12-14T00:03:24.759Z,33.22
2022-12-14T00:05:54.346Z,43.35
2022-12-14T00:08:24.135Z,56.53
2022-12-14T00:10:56.312Z,55.60
2022-12-14T00:13:25.879Z,56.67
2022-12-14T00:15:55.455Z,49.22
2022-12-14T00:18:25.579Z,43.05
2022-12-14T00:20:55.594Z,37.13
2022-12-14T00:23:24.871Z,32.33
2022-12-14T00:25:54.738Z,40.03
2022-12-14T00:28:24.367Z,34.28
2022-12-14T00:31:00.310Z,34.72
2022-12-14T00:33:29.938Z,34.70
2022-12-14T00:35:59.231Z,35.35
2022-12-14T00:38:29.406Z,33.80
2022-12-14T00:40:59.568Z,32.33
2022-12-14T00:43:29.357Z,32.30
2022-12-14T00:45:59.409Z,30.05
2022-12-14T00:48:30.015Z,30.17
2022-12-14T00:51:00.299Z,29.77
2022-12-14T00:53:30.195Z,28.63
2022-12-14T00:56:07.504Z,29.95
2022-12-14T00:58:37.779Z,29.38
2022-12-14T01:01:10.339Z,29.73
2022-12-14T01:03:40.427Z,31.02
2022-12-14T01:06:20.003Z,31.13
2022-12-14T01:08:50.400Z,30.63
2022-12-14T01:11:19.994Z,29.63
2022-12-14T01:13:49.944Z,31.33
2022-12-14T01:16:20.010Z,30.13
2022-12-14T01:18:49.762Z,30.48
2022-12-14T01:21:22.067Z,30.60
2022-12-14T01:23:57.040Z,30.08
2022-12-14T01:26:28.860Z,32.17
2022-12-14T01:29:00.301Z,34.30
2022-12-14T01:31:33.221Z,33.22
2022-12-14T01:34:03.153Z,33.03
2022-12-14T01:36:35.625Z,36.58
2022-12-14T01:39:10.602Z,64.03
2022-12-14T01:41:53.422Z,86.47
2022-12-14T01:47:01.259Z,50.90
2022-12-14T01:50:04.585Z,57.28
2022-12-14T01:52:42.884Z,54.40
2022-12-14T01:55:17.921Z,42.15
2022-12-14T01:57:52.935Z,38.92
2022-12-14T02:00:24.213Z,38.97
2022-12-14T02:03:01.039Z,38.67
2022-12-14T02:05:33.793Z,36.80
2022-12-14T02:10:34.466Z,34.70
2022-12-14T02:13:32.898Z,38.75
2022-12-14T02:16:02.544Z,40.83
2022-12-14T02:18:34.422Z,48.03
2022-12-14T02:21:15.901Z,49.63
2022-12-14T02:24:21.146Z,61.13
2022-12-14T02:26:59.674Z,62.53
2022-12-14T02:29:42.951Z,66.28
2022-12-14T02:32:39.133Z,67.75
2022-12-14T02:35:27.284Z,73.97
2022-12-14T02:38:32.287Z,74.50
2022-12-14T02:41:31.305Z,72.80
2022-12-14T02:44:18.137Z,73.97
2022-12-14T02:47:00.217Z,84.28
2022-12-14T02:49:49.672Z,92.18
2022-12-14T02:52:57.781Z,101.47
2022-12-14T02:55:42.352Z,103.53
2022-12-14T02:58:37.814Z,108.10
2022-12-14T03:01:13.422Z,107.38
2022-12-14T03:03:44.550Z,113.93
2022-12-14T03:06:26.910Z,113.88
2022-12-14T03:09:05.433Z,118.07
2022-12-14T03:11:49.959Z,115.60
2022-12-14T03:14:28.954Z,108.25
2022-12-14T03:17:06.192Z,89.25
2022-12-14T03:19:46.209Z,83.50
2022-12-14T03:22:24.641Z,79.78
2022-12-14T03:25:00.479Z,71.28
2022-12-14T03:27:37.921Z,72.55
2022-12-14T03:30:43.826Z,74.05
2022-12-14T03:33:16.567Z,75.60
2022-12-14T03:35:59.688Z,82.00
2022-12-14T03:38:52.003Z,78.97
2022-12-14T03:41:56.870Z,78.87
2022-12-14T03:44:49.699Z,74.05
2022-12-14T03:47:28.382Z,77.60
2022-12-14T03:50:19.775Z,79.32
2022-12-14T03:53:01.946Z,67.00
2022-12-14T03:56:06.600Z,69.38
2022-12-14T03:58:57.199Z,63.72
2022-12-14T04:01:52.083Z,66.15
2022-12-14T04:04:47.500Z,64.85
2022-12-14T04:07:40.133Z,63.42
2022-12-14T04:10:36.058Z,62.45
2022-12-14T04:13:31.318Z,62.97
2022-12-14T04:16:26.001Z,58.28
2022-12-14T04:19:00.955Z,55.72
2022-12-14T04:21:46.578Z,59.25
2022-12-14T04:24:52.072Z,61.83
2022-12-14T04:27:26.094Z,58.95
2022-12-14T04:30:01.651Z,63.08
2022-12-14T04:32:36.717Z,61.42
2022-12-14T04:35:37.447Z,55.15
2022-12-14T04:38:16.291Z,52.70
2022-12-14T04:40:57.662Z,53.08
2022-12-14T04:43:31.576Z,60.53
2022-12-14T04:46:11.094Z,53.95
2022-12-14T04:49:01.645Z,54.05
2022-12-14T04:51:51.292Z,54.88
2022-12-14T04:54:45.863Z,58.70
2022-12-14T04:57:21.684Z,59.50
2022-12-14T04:59:52.219Z,51.67
2022-12-14T05:02:29.538Z,50.65
2022-12-14T05:05:32.389Z,53.53
2022-12-14T05:08:31.493Z,57.70
2022-12-14T05:11:51.933Z,59.20
2022-12-14T05:14:22.959Z,61.45
2022-12-14T05:16:52.756Z,59.45
2022-12-14T05:19:27.584Z,63.67
2022-12-14T05:21:57.247Z,63.78
2022-12-14T05:24:26.849Z,61.88
2022-12-14T05:26:56.450Z,56.97
2022-12-14T05:29:25.881Z,52.28
2022-12-14T05:31:55.920Z,47.75
2022-12-14T05:34:26.024Z,51.03
2022-12-14T05:36:56.052Z,50.85
2022-12-14T05:39:25.979Z,55.58
2022-12-14T05:41:55.745Z,54.42
2022-12-14T05:44:25.607Z,43.30
2022-12-14T05:46:55.084Z,44.00
2022-12-14T05:49:24.844Z,38.47
2022-12-14T05:51:54.772Z,40.47
2022-12-14T05:54:24.393Z,43.35
2022-12-14T05:56:54.090Z,46.25
2022-12-14T05:59:24.121Z,51.75
2022-12-14T06:01:53.550Z,53.50
2022-12-14T06:04:23.288Z,50.88
2022-12-14T06:06:53.304Z,40.40
2022-12-14T06:09:24.005Z,39.80
2022-12-14T06:11:55.140Z,33.95
2022-12-14T06:14:27.964Z,30.52
2022-12-14T06:16:57.854Z,34.50
2022-12-14T06:19:27.219Z,35.17
2022-12-14T06:21:56.887Z,45.10
2022-12-14T06:24:26.814Z,45.78
2022-12-14T06:26:56.180Z,43.40
2022-12-14T06:29:25.866Z,39.90
2022-12-14T06:31:55.792Z,47.17
2022-12-14T06:34:28.692Z,40.88
2022-12-14T06:36:59.609Z,41.33
2022-12-14T06:39:34.052Z,36.80
2022-12-14T06:42:04.952Z,42.70
2022-12-14T06:44:36.114Z,38.45
2022-12-14T06:47:06.674Z,37.78
2022-12-14T06:49:36.896Z,37.78
2022-12-14T06:52:07.571Z,42.85
2022-12-14T06:54:37.753Z,45.80
2022-12-14T06:57:07.797Z,45.90
2022-12-14T06:59:37.278Z,43.20
2022-12-14T07:02:07.060Z,47.60
2022-12-14T07:04:36.761Z,43.88
2022-12-14T07:07:07.503Z,48.97
2022-12-14T07:09:37.098Z,47.42
2022-12-14T07:12:08.038Z,44.83
2022-12-14T07:14:38.647Z,42.05
2022-12-14T07:17:08.755Z,46.03
2022-12-14T07:19:38.287Z,35.30
2022-12-14T07:22:08.248Z,30.48
2022-12-14T07:24:38.825Z,29.95
2022-12-14T07:27:09.739Z,32.33
2022-12-14T07:29:40.125Z,28.52
2022-12-14T07:32:10.103Z,31.45
2022-12-14T07:34:40.231Z,33.88
2022-12-14T07:37:10.033Z,34.28
2022-12-14T07:39:39.692Z,30.88
2022-12-14T07:42:09.399Z,29.42
2022-12-14T07:44:39.906Z,27.77
2022-12-14T07:47:12.543Z,27.15
2022-12-14T07:49:46.630Z,27.17
2022-12-14T07:52:20.373Z,24.50
2022-12-14T07:54:51.575Z,26.83
2022-12-14T07:57:21.127Z,29.40
2022-12-14T07:59:55.792Z,29.33
2022-12-14T08:02:27.578Z,27.27
2022-12-14T08:04:57.527Z,27.40
2022-12-14T08:07:28.598Z,29.05
2022-12-14T08:10:08.526Z,26.00
2022-12-14T08:12:38.990Z,28.30
2022-12-14T08:15:10.437Z,31.02
2022-12-14T08:17:40.217Z,26.30
2022-12-14T08:20:11.950Z,26.73
2022-12-14T08:22:41.654Z,27.57
2022-12-14T08:25:11.779Z,26.95
2022-12-14T08:27:41.771Z,26.08
2022-12-14T08:30:12.051Z,27.65
2022-12-14T08:32:42.026Z,30.67
2022-12-14T08:35:12.317Z,29.45
2022-12-14T08:37:47.324Z,29.85
2022-12-14T08:47:17.773Z,33.20
2022-12-14T08:49:47.716Z,31.88
2022-12-14T08:52:17.726Z,31.52
2022-12-14T08:54:47.331Z,31.30
2022-12-14T08:57:16.698Z,32.45
2022-12-14T09:00:02.759Z,32.65
2022-12-14T09:02:32.826Z,33.80
2022-12-14T09:05:03.020Z,30.33
2022-12-14T09:07:33.866Z,29.00
2022-12-14T09:10:03.808Z,31.30
2022-12-14T09:12:34.902Z,29.65
2022-12-14T09:15:05.499Z,30.08
2022-12-14T09:17:36.933Z,27.25
2022-12-14T09:20:08.663Z,28.67
2022-12-14T09:22:39.623Z,29.42
2022-12-14T09:25:11.112Z,28.00
2022-12-14T09:27:40.860Z,28.58
2022-12-14T09:30:10.928Z,30.15
2022-12-14T09:32:41.322Z,28.30
2022-12-14T09:35:11.535Z,24.00
2022-12-14T09:37:42.149Z,24.35
2022-12-14T09:40:14.795Z,24.95
2022-12-14T09:45:30.180Z,21.95
2022-12-14T09:48:22.313Z,22.88
2022-12-14T09:50:55.169Z,21.43
2022-12-14T09:53:25.994Z,22.85
2022-12-14T09:55:58.643Z,19.98
2022-12-14T09:58:31.576Z,19.30
2022-12-14T10:01:36.207Z,18.67
2022-12-14T10:04:23.625Z,18.73
2022-12-14T10:07:12.139Z,18.98
2022-12-14T10:10:00.041Z,19.00
2022-12-14T10:12:35.065Z,20.55
2022-12-14T10:15:20.374Z,19.92
2022-12-14T10:18:34.036Z,19.02
2022-12-14T10:21:11.447Z,20.08
2022-12-14T10:23:48.713Z,22.63
2022-12-14T10:26:22.277Z,22.13
2022-12-14T10:29:06.286Z,20.65
2022-12-14T10:31:49.739Z,20.17
2022-12-14T10:34:30.314Z,18.98
2022-12-14T10:37:27.091Z,18.55
2022-12-14T10:40:19.697Z,19.77
2022-12-14T10:43:04.539Z,22.33
2022-12-14T10:45:41.860Z,20.23
2022-12-14T10:48:41.094Z,18.08
2022-12-14T10:51:45.946Z,22.08
2022-12-14T10:54:27.439Z,16.75
2022-12-14T10:56:57.347Z,20.90
2022-12-14T10:59:39.699Z,20.45
2022-12-14T11:02:23.133Z,19.63
2022-12-14T11:04:56.955Z,22.35
2022-12-14T11:07:38.167Z,23.05
2022-12-14T11:10:23.475Z,21.45
2022-12-14T11:13:16.720Z,19.08
2022-12-14T11:15:49.133Z,19.80
2022-12-14T11:18:18.880Z,17.75
2022-12-14T11:20:59.143Z,16.58
2022-12-14T11:23:43.875Z,16.48
2022-12-14T11:26:44.501Z,15.95
2022-12-14T11:29:32.293Z,17.77
2022-12-14T11:32:02.993Z,15.40
2022-12-14T11:35:07.804Z,17.33
2022-12-14T11:37:37.455Z,18.08
2022-12-14T11:40:23.623Z,16.85
2022-12-14T11:42:58.699Z,18.67
2022-12-14T11:45:28.633Z,19.02
2022-12-14T11:48:16.596Z,22.27
2022-12-14T11:50:49.236Z,19.13
2022-12-14T11:53:22.966Z,20.02
2022-12-14T11:56:04.416Z,18.73
2022-12-14T11:58:39.870Z,20.27
2022-12-14T12:01:23.063Z,20.55
2022-12-14T12:03:58.901Z,22.17
2022-12-14T12:06:32.451Z,20.30
2022-12-14T12:09:05.805Z,20.92
2022-12-14T12:11:39.704Z,19.67
2022-12-14T12:14:34.850Z,23.05
2022-12-14T12:17:18.523Z,20.98
2022-12-14T12:19:52.594Z,24.70
2022-12-14T12:22:23.245Z,24.02
2022-12-14T12:25:24.291Z,24.13
2022-12-14T12:27:57.664Z,21.77
2022-12-14T12:30:31.050Z,31.08
2022-12-14T12:33:09.553Z,27.50
2022-12-14T12:35:49.762Z,32.53
2022-12-14T12:38:41.845Z,25.42
2022-12-14T12:41:43.277Z,25.90
2022-12-14T12:44:49.733Z,24.85
2022-12-14T12:47:47.802Z,25.05
2022-12-14T12:50:22.708Z,25.90
2022-12-14T12:53:03.644Z,25.33
2022-12-14T12:55:38.496Z,24.17
2022-12-14T12:58:10.778Z,26.55
2022-12-14T13:00:42.972Z,26.40
2022-12-14T13:03:21.850Z,25.27
2022-12-14T13:05:55.327Z,26.27
2022-12-14T13:08:30.416Z,27.75
2022-12-14T13:11:37.824Z,29.40
2022-12-14T13:14:20.314Z,29.45
2022-12-14T13:16:52.597Z,29.02
2022-12-14T13:22:33.425Z,31.75
2022-12-14T13:25:29.361Z,30.13
2022-12-14T13:28:26.923Z,30.05
2022-12-14T13:31:33.336Z,31.27
2022-12-14T13:34:20.416Z,31.08
2022-12-14T13:37:17.317Z,30.25
2022-12-14T13:40:11.790Z,37.40
2022-12-14T13:43:02.826Z,33.20
2022-12-14T13:45:39.387Z,38.67
2022-12-14T13:48:33.612Z,46.60
2022-12-14T13:51:07.802Z,51.30
2022-12-14T13:53:50.204Z,46.50
2022-12-14T13:58:53.706Z,45.90
2022-12-14T14:01:41.763Z,51.47
2022-12-14T14:04:17.564Z,49.33
2022-12-14T14:06:56.012Z,51.00
2022-12-14T14:09:29.655Z,52.55
2022-12-14T14:12:05.489Z,53.90
2022-12-14T14:14:53.128Z,55.13
2022-12-14T14:17:38.315Z,57.30
2022-12-14T14:20:29.464Z,56.20
2022-12-14T14:23:25.015Z,67.30
2022-12-14T14:26:11.012Z,70.30
2022-12-14T14:28:41.626Z,69.57
2022-12-14T14:31:11.377Z,70.43
2022-12-14T14:33:57.149Z,69.90
2022-12-14T14:36:38.116Z,67.65
2022-12-14T14:42:25.678Z,68.13
2022-12-14T14:44:59.861Z,72.47
2022-12-14T14:47:32.250Z,75.40
2022-12-14T14:50:06.549Z,78.22
2022-12-14T14:52:42.822Z,78.03
2022-12-14T14:55:54.467Z,81.05
2022-12-14T14:58:33.160Z,85.20
2022-12-14T15:01:28.194Z,90.03
2022-12-14T15:04:32.974Z,84.35
2022-12-14T15:07:15.193Z,84.43
2022-12-14T15:09:52.569Z,85.18
2022-12-14T15:12:44.753Z,88.32
2022-12-14T15:15:20.380Z,95.13
2022-12-14T15:17:50.146Z,102.32
2022-12-14T15:20:28.849Z,99.70
2022-12-14T15:22:59.555Z,99.25
2022-12-14T15:25:32.321Z,100.38
2022-12-14T15:28:08.936Z,104.50
2022-12-14T15:33:45.434Z,110.95
2022-12-14T15:36:21.463Z,104.18
2022-12-14T15:38:56.842Z,93.15
2022-12-14T15:41:34.164Z,92.35
2022-12-14T15:44:04.038Z,95.55
2022-12-14T15:46:36.556Z,93.75
2022-12-14T15:49:12.112Z,92.63
2022-12-14T15:51:45.374Z,92.68
2022-12-14T15:54:24.199Z,92.07
2022-12-14T15:56:58.408Z,88.85
2022-12-14T15:59:37.942Z,89.53
2022-12-14T16:02:31.645Z,86.40
2022-12-14T16:05:07.382Z,90.25
2022-12-14T16:07:44.760Z,86.25
2022-12-14T16:10:25.425Z,85.07
2022-12-14T16:13:32.134Z,84.85
2022-12-14T16:16:18.874Z,82.50
2022-12-14T16:18:54.274Z,81.45
2022-12-14T16:21:37.079Z,83.25
2022-12-14T16:24:26.569Z,85.43
2022-12-14T16:27:02.729Z,86.50
2022-12-14T16:29:36.064Z,90.78
2022-12-14T16:32:18.589Z,88.25
2022-12-14T16:35:02.150Z,88.80
2022-12-14T16:37:34.111Z,88.80
2022-12-14T16:40:06.108Z,91.30
2022-12-14T16:42:40.445Z,89.63
2022-12-14T16:45:47.168Z,89.10
2022-12-14T16:48:26.191Z,86.78
2022-12-14T16:51:38.451Z,95.53
2022-12-14T16:54:27.034Z,93.50
2022-12-14T16:57:19.144Z,98.15
2022-12-14T16:59:58.450Z,98.95
2022-12-14T17:02:32.179Z,96.75
2022-12-14T17:05:07.944Z,100.53
2022-12-14T17:07:39.620Z,98.90
2022-12-14T17:10:21.342Z,102.63
2022-12-14T17:12:54.764Z,132.60
2022-12-14T17:15:30.739Z,127.32
2022-12-14T17:18:03.954Z,395.17
2022-12-14T17:20:42.960Z,287.30
2022-12-14T17:23:19.504Z,398.45
2022-12-14T17:25:49.974Z,302.48
2022-12-14T17:28:28.439Z,226.43
2022-12-14T17:31:03.504Z,148.50
2022-12-14T17:33:34.354Z,126.38
2022-12-14T17:36:07.829Z,378.17
2022-12-14T17:38:38.259Z,239.50
2022-12-14T17:41:09.252Z,190.98
2022-12-14T17:43:43.997Z,142.32
2022-12-14T17:46:21.972Z,140.57
2022-12-14T17:48:52.795Z,120.20
2022-12-14T17:51:31.765Z,114.38
2022-12-14T17:54:02.751Z,111.10
2022-12-14T17:56:32.956Z,111.78
2022-12-14T17:59:03.382Z,154.98
2022-12-14T18:01:33.943Z,305.83
2022-12-14T18:04:04.512Z,173.68
2022-12-14T18:06:34.217Z,141.23
2022-12-14T18:09:06.944Z,135.23
2022-12-14T18:11:39.184Z,122.53
2022-12-14T18:14:16.860Z,124.63
2022-12-14T18:16:46.449Z,200.77
2022-12-14T18:19:17.734Z,392.98
2022-12-14T18:21:47.194Z,310.73
2022-12-14T18:24:25.607Z,357.02
2022-12-14T18:26:55.469Z,212.85
2022-12-14T18:29:25.008Z,129.85
2022-12-14T18:31:58.026Z,142.07
2022-12-14T18:36:56.893Z,177.70
2022-12-14T18:39:26.438Z,136.70
2022-12-14T18:41:55.893Z,107.90
2022-12-14T18:44:26.146Z,112.72
2022-12-14T18:46:57.813Z,107.38
2022-12-14T18:49:29.564Z,105.50
2022-12-14T18:51:59.263Z,106.50
2022-12-14T18:54:29.046Z,107.63
2022-12-14T18:56:58.732Z,98.65
2022-12-14T18:59:28.388Z,99.20
2022-12-14T19:01:59.431Z,98.03
2022-12-14T19:04:35.132Z,102.32
2022-12-14T19:07:05.169Z,101.05
2022-12-14T19:09:35.522Z,101.72
2022-12-14T19:12:06.657Z,105.25
2022-12-14T19:14:40.768Z,100.47
2022-12-14T19:17:13.594Z,95.50
2022-12-14T19:22:18.290Z,89.32
2022-12-14T19:24:52.505Z,85.85
2022-12-14T19:28:00.927Z,83.95
2022-12-14T19:30:25.871Z,77.75
2022-12-14T19:32:57.628Z,81.07
2022-12-14T19:35:27.414Z,77.47
2022-12-14T19:37:57.730Z,77.28
2022-12-14T19:40:31.199Z,78.70
2022-12-14T19:43:01.574Z,79.05
2022-12-14T19:45:34.102Z,75.13
2022-12-14T19:48:09.991Z,83.97
2022-12-14T19:50:42.481Z,70.85
2022-12-14T19:53:18.516Z,72.75
2022-12-14T19:55:53.659Z,71.88
2022-12-14T19:58:23.944Z,75.55
2022-12-14T20:00:54.165Z,69.32
2022-12-14T20:03:25.480Z,75.28
2022-12-14T20:05:59.041Z,91.13
2022-12-14T20:08:33.709Z,82.43
2022-12-14T20:11:13.363Z,67.85
2022-12-14T20:13:43.814Z,69.25
2022-12-14T20:16:19.404Z,68.45
2022-12-14T20:18:51.359Z,79.65
2022-12-14T20:21:25.538Z,137.32
2022-12-14T20:23:59.276Z,126.25
2022-12-14T20:26:39.603Z,81.10
2022-12-14T20:29:10.430Z,70.22
2022-12-14T20:31:41.935Z,69.93
2022-12-14T20:34:11.979Z,69.47
2022-12-14T20:36:42.818Z,71.80
2022-12-14T20:39:15.136Z,68.65
2022-12-14T20:44:17.001Z,67.75
2022-12-14T20:46:51.417Z,70.18
2022-12-14T20:49:30.538Z,68.63
2022-12-14T20:52:00.971Z,61.03
2022-12-14T20:54:39.533Z,63.00
2022-12-14T20:57:10.379Z,61.47
2022-12-14T20:59:39.999Z,63.45
2022-12-14T21:02:18.978Z,61.10
2022-12-14T21:04:48.693Z,63.20
2022-12-14T21:07:22.817Z,62.47
2022-12-14T21:09:55.366Z,62.25
2022-12-14T21:12:25.194Z,68.95
2022-12-14T21:14:57.271Z,62.80
2022-12-14T21:17:29.512Z,62.72
2022-12-14T21:19:59.666Z,61.95
2022-12-14T21:22:31.503Z,60.97
2022-12-14T21:25:03.597Z,58.93
2022-12-14T21:30:03.250Z,56.88
2022-12-14T21:32:33.283Z,60.08
2022-12-14T21:35:03.005Z,62.25
2022-12-14T21:37:32.763Z,58.95
2022-12-14T21:40:04.610Z,59.92
2022-12-14T21:42:34.209Z,59.90
2022-12-14T21:45:05.873Z,61.05
2022-12-14T21:47:35.782Z,64.10
2022-12-14T21:50:05.606Z,59.88
2022-12-14T21:52:35.409Z,62.30
2022-12-14T21:55:04.848Z,58.53
2022-12-14T21:57:52.560Z,61.40
2022-12-14T22:00:23.105Z,61.13
2022-12-14T22:02:52.952Z,62.42
2022-12-14T22:05:22.390Z,67.72
2022-12-14T22:07:53.179Z,63.75
2022-12-14T22:10:24.993Z,60.97
2022-12-14T22:12:55.030Z,61.78
2022-12-14T22:15:24.735Z,62.78
2022-12-14T22:17:54.021Z,60.40
2022-12-14T22:20:23.481Z,60.97
2022-12-14T22:22:52.865Z,74.45
2022-12-14T22:25:22.767Z,159.85
2022-12-14T22:27:52.272Z,200.35
2022-12-14T22:30:23.962Z,129.38
2022-12-14T22:32:55.694Z,98.97
2022-12-14T22:35:24.967Z,89.20
2022-12-14T22:37:54.598Z,80.63
2022-12-14T22:40:24.138Z,74.82
2022-12-14T22:42:53.348Z,76.30
2022-12-14T22:45:22.811Z,72.72
2022-12-14T22:47:52.453Z,66.82
2022-12-14T22:50:22.361Z,66.93
2022-12-14T22:52:51.881Z,67.10
2022-12-14T22:55:21.549Z,66.75
2022-12-14T22:57:51.356Z,63.53
2022-12-14T23:00:20.851Z,64.18
2022-12-14T23:02:50.870Z,63.65
2022-12-14T23:05:21.007Z,60.20
2022-12-14T23:07:50.480Z,63.75
2022-12-14T23:10:38.093Z,62.40
2022-12-14T23:13:25.512Z,66.07
2022-12-14T23:16:13.485Z,64.70
2022-12-14T23:19:01.528Z,63.75
2022-12-14T23:21:49.388Z,65.22
2022-12-14T23:24:37.189Z,68.10
2022-12-14T23:27:24.964Z,63.90
2022-12-14T23:30:12.522Z,67.05
2022-12-14T23:33:00.155Z,70.97
2022-12-14T23:35:47.588Z,70.80
2022-12-14T23:38:35.741Z,82.00
2022-12-14T23:41:23.685Z,86.03
2022-12-14T23:44:11.651Z,93.47
2022-12-14T23:46:59.077Z,104.07
2022-12-14T23:49:47.388Z,119.43
2022-12-14T23:52:35.030Z,134.07
2022-12-14T23:55:22.466Z,139.85
2022-12-14T23:58:10.331Z,139.77
